createdAt,value
2023-06-10T00:03:28.399Z,16.10
2023-06-10T00:08:32.449Z,16.12
2023-06-10T00:13:34.490Z,16.14
2023-06-10T00:18:39.818Z,16.15
2023-06-10T00:23:42.294Z,16.13
2023-06-10T00:28:46.173Z,16.09
2023-06-10T00:33:48.012Z,16.05
2023-06-10T00:38:49.932Z,16.06
2023-06-10T00:43:51.703Z,16.01
2023-06-10T00:48:53.748Z,15.97
2023-06-10T00:53:55.842Z,15.96
2023-06-10T00:58:57.456Z,15.93
2023-06-10T01:03:59.798Z,15.90
2023-06-10T01:09:20.231Z,15.95
2023-06-10T01:14:24.026Z,15.91
2023-06-10T01:19:25.687Z,15.84
2023-06-10T01:24:29.380Z,15.79
2023-06-10T01:29:43.514Z,15.76
2023-06-10T01:34:46.798Z,15.73
2023-06-10T01:39:50.226Z,15.76
2023-06-10T01:44:52.231Z,15.79
2023-06-10T01:49:53.865Z,15.82
2023-06-10T01:54:55.689Z,15.85
2023-06-10T01:59:57.360Z,15.84
2023-06-10T02:04:59.360Z,15.80
2023-06-10T02:10:01.157Z,15.80
2023-06-10T02:15:04.767Z,15.84
2023-06-10T02:20:08.327Z,15.87
2023-06-10T02:25:10.715Z,15.89
2023-06-10T02:30:13.873Z,15.87
2023-06-10T02:35:16.908Z,15.87
2023-06-10T02:40:18.877Z,15.88
2023-06-10T02:45:21.442Z,15.92
2023-06-10T02:50:23.323Z,15.94
2023-06-10T02:55:40.637Z,15.93
2023-06-10T03:00:44.342Z,15.97
2023-06-10T03:05:46.606Z,15.99
2023-06-10T03:10:49.100Z,16.02
2023-06-10T03:15:52.790Z,16.01
2023-06-10T03:20:57.385Z,16.01
2023-06-10T03:25:59.925Z,16.03
2023-06-10T03:31:03.284Z,16.08
2023-06-10T03:36:06.818Z,16.13
2023-06-10T03:41:09.227Z,16.19
2023-06-10T03:46:11.520Z,16.22
2023-06-10T03:51:13.820Z,16.28
2023-06-10T03:56:15.647Z,16.36
2023-06-10T04:01:19.207Z,16.44
2023-06-10T04:06:23.654Z,16.47
2023-06-10T04:11:25.719Z,16.55
2023-06-10T04:16:28.548Z,16.66
2023-06-10T04:21:31.063Z,16.86
2023-06-10T04:26:33.074Z,17.10
2023-06-10T04:31:35.361Z,17.38
2023-06-10T04:36:37.299Z,17.62
2023-06-10T04:41:39.626Z,17.82
2023-06-10T04:46:42.277Z,18.00
2023-06-10T04:51:45.187Z,18.12
2023-06-10T04:56:47.821Z,18.16
2023-06-10T05:01:49.642Z,18.16
2023-06-10T05:06:51.463Z,18.19
2023-06-10T05:11:54.855Z,18.34
2023-06-10T05:16:56.592Z,18.62
2023-06-10T05:21:58.559Z,19.01
2023-06-10T05:27:00.621Z,19.29
2023-06-10T05:32:04.447Z,19.37
2023-06-10T05:37:06.814Z,19.40
2023-06-10T05:42:09.126Z,19.39
2023-06-10T05:47:10.772Z,19.31
2023-06-10T05:52:12.605Z,19.17
2023-06-10T05:57:14.603Z,19.12
2023-06-10T06:02:16.307Z,19.26
2023-06-10T06:07:18.063Z,19.57
2023-06-10T06:12:19.944Z,19.94
2023-06-10T06:17:21.674Z,20.25
2023-06-10T06:22:23.473Z,20.46
2023-06-10T06:27:25.490Z,20.54
2023-06-10T06:32:28.705Z,20.55
2023-06-10T06:37:30.569Z,20.50
2023-06-10T06:42:58.490Z,20.37
2023-06-10T06:48:38.486Z,20.57
2023-06-10T06:53:45.404Z,20.72
2023-06-10T06:58:47.128Z,20.97
2023-06-10T07:03:50.410Z,21.43
2023-06-10T07:08:52.447Z,21.31
2023-06-10T07:13:54.374Z,20.81
2023-06-10T07:18:56.188Z,20.28
2023-06-10T07:23:58.116Z,19.84
2023-06-10T07:28:59.848Z,19.36
2023-06-10T07:34:01.755Z,18.81
2023-06-10T07:39:03.808Z,18.27
2023-06-10T07:44:05.572Z,17.89
2023-06-10T07:49:07.266Z,17.74
2023-06-10T07:54:09.055Z,17.79
2023-06-10T07:59:10.992Z,17.96
2023-06-10T08:04:12.947Z,18.16
2023-06-10T08:09:14.988Z,18.37
2023-06-10T08:14:17.206Z,18.53
2023-06-10T08:19:18.995Z,18.67
2023-06-10T08:24:21.271Z,18.77
2023-06-10T08:29:23.372Z,18.84
2023-06-10T08:34:25.645Z,19.05
2023-06-10T08:39:27.318Z,19.31
2023-06-10T08:44:30.591Z,19.60
2023-06-10T08:49:39.196Z,19.94
2023-06-10T08:54:46.599Z,20.37
2023-06-10T08:59:49.733Z,20.74
2023-06-10T09:04:52.878Z,20.80
2023-06-10T09:09:55.573Z,20.78
2023-06-10T09:14:57.606Z,20.98
2023-06-10T09:20:01.142Z,21.39
2023-06-10T09:25:09.213Z,22.04
2023-06-10T09:30:12.094Z,22.98
2023-06-10T09:35:14.090Z,23.67
2023-06-10T09:40:15.905Z,24.08
2023-06-10T09:45:17.802Z,23.96
2023-06-10T09:50:20.048Z,24.21
2023-06-10T09:55:21.923Z,25.07
2023-06-10T10:00:24.113Z,25.63
2023-06-10T10:05:26.688Z,25.70
2023-06-10T10:10:28.489Z,25.59
2023-06-10T10:15:33.772Z,25.50
2023-06-10T10:20:41.221Z,25.29
2023-06-10T10:25:44.385Z,24.86
2023-06-10T10:30:50.455Z,24.63
2023-06-10T10:35:54.118Z,24.58
2023-06-10T10:41:00.638Z,24.47
2023-06-10T10:46:07.357Z,24.23
2023-06-10T10:51:10.454Z,24.09
2023-06-10T10:56:18.959Z,24.05
2023-06-10T11:01:20.901Z,24.04
2023-06-10T11:06:22.690Z,24.10
2023-06-10T11:11:29.650Z,24.09
2023-06-10T11:16:31.503Z,24.00
2023-06-10T11:21:33.445Z,23.89
2023-06-10T11:26:38.278Z,23.74
2023-06-10T11:31:43.577Z,23.81
2023-06-10T11:36:46.844Z,24.01
2023-06-10T11:41:49.289Z,24.10
2023-06-10T11:46:52.622Z,24.36
2023-06-10T11:51:54.308Z,24.47
2023-06-10T11:57:00.359Z,24.36
2023-06-10T12:02:02.754Z,24.26
2023-06-10T12:07:04.654Z,24.27
2023-06-10T12:12:08.327Z,24.28
2023-06-10T12:17:10.066Z,24.35
2023-06-10T12:22:11.923Z,24.36
2023-06-10T12:27:14.181Z,24.48
2023-06-10T12:32:16.394Z,24.64
2023-06-10T12:37:18.158Z,24.72
2023-06-10T12:42:23.122Z,24.66
2023-06-10T12:47:37.449Z,24.50
2023-06-10T12:52:39.309Z,24.45
2023-06-10T12:57:50.048Z,24.56
2023-06-10T13:02:52.277Z,24.70
2023-06-10T13:07:54.053Z,24.80
2023-06-10T13:12:55.808Z,24.82
2023-06-10T13:17:57.760Z,24.87
2023-06-10T13:22:59.673Z,24.95
2023-06-10T13:28:02.081Z,24.97
2023-06-10T13:33:03.882Z,25.06
2023-06-10T13:38:05.736Z,25.05
2023-06-10T13:43:07.386Z,24.89
2023-06-10T13:48:09.610Z,24.78
2023-06-10T13:53:11.402Z,24.80
2023-06-10T13:58:13.252Z,24.95
2023-06-10T14:03:15.659Z,25.04
2023-06-10T14:08:18.597Z,24.98
2023-06-10T14:13:20.303Z,24.93
2023-06-10T14:18:22.043Z,24.97
2023-06-10T14:23:25.549Z,25.07
2023-06-10T14:28:28.811Z,25.07
2023-06-10T14:33:32.262Z,25.00
2023-06-10T14:38:34.214Z,24.76
2023-06-10T14:43:36.299Z,24.32
2023-06-10T14:48:37.959Z,23.55
2023-06-10T14:53:39.671Z,22.82
2023-06-10T14:58:41.468Z,22.20
2023-06-10T15:03:43.236Z,21.63
2023-06-10T15:08:46.369Z,21.19
2023-06-10T15:13:48.086Z,20.86
2023-06-10T15:18:49.824Z,20.60
2023-06-10T15:23:52.400Z,20.48
2023-06-10T15:28:54.371Z,20.37
2023-06-10T15:33:56.053Z,20.30
2023-06-10T15:39:07.432Z,20.26
2023-06-10T15:44:09.199Z,20.25
2023-06-10T15:49:11.392Z,20.24
2023-06-10T15:54:13.207Z,20.26
2023-06-10T15:59:14.958Z,20.31
2023-06-10T16:04:16.839Z,20.40
2023-06-10T16:09:18.810Z,20.48
2023-06-10T16:14:20.687Z,20.53
2023-06-10T16:19:22.680Z,20.58
2023-06-10T16:24:24.400Z,20.64
2023-06-10T16:29:27.135Z,20.68
2023-06-10T16:34:28.886Z,20.73
2023-06-10T16:39:30.752Z,20.77
2023-06-10T16:44:32.401Z,20.82
2023-06-10T16:49:35.399Z,20.88
2023-06-10T16:54:37.202Z,20.93
2023-06-10T16:59:39.286Z,20.96
2023-06-10T17:04:41.208Z,20.99
2023-06-10T17:09:42.830Z,21.01
2023-06-10T17:14:44.512Z,21.03
2023-06-10T17:19:48.523Z,21.04
2023-06-10T17:24:52.018Z,21.03
2023-06-10T17:29:54.423Z,21.02
2023-06-10T17:34:56.311Z,21.01
2023-06-10T17:39:58.011Z,21.00
2023-06-10T17:44:59.698Z,20.97
2023-06-10T17:50:01.670Z,20.93
2023-06-10T17:55:03.837Z,20.90
2023-06-10T18:00:07.303Z,20.87
2023-06-10T18:05:10.238Z,20.82
2023-06-10T18:10:12.864Z,20.77
2023-06-10T18:15:14.601Z,20.70
2023-06-10T18:20:16.455Z,20.61
2023-06-10T18:25:18.139Z,20.51
2023-06-10T18:30:21.124Z,20.42
2023-06-10T18:35:23.176Z,20.33
2023-06-10T18:40:24.890Z,20.20
2023-06-10T18:45:26.676Z,20.06
2023-06-10T18:50:28.794Z,19.92
2023-06-10T18:55:33.510Z,19.79
2023-06-10T19:00:35.508Z,19.66
2023-06-10T19:05:37.794Z,19.53
2023-06-10T19:10:39.471Z,19.41
2023-06-10T19:15:41.662Z,19.29
2023-06-10T19:20:43.976Z,19.15
2023-06-10T19:25:45.666Z,19.02
2023-06-10T19:30:47.566Z,18.91
2023-06-10T19:35:49.415Z,18.82
2023-06-10T19:40:51.109Z,18.72
2023-06-10T19:45:52.799Z,18.60
2023-06-10T19:50:54.535Z,18.51
2023-06-10T19:55:56.197Z,18.43
2023-06-10T20:00:57.916Z,18.35
2023-06-10T20:05:59.692Z,18.23
2023-06-10T20:11:01.658Z,18.14
2023-06-10T20:16:03.507Z,18.06
2023-06-10T20:21:05.627Z,17.97
2023-06-10T20:26:07.386Z,17.87
2023-06-10T20:31:09.298Z,17.78
2023-06-10T20:36:11.141Z,17.71
2023-06-10T20:41:13.957Z,17.63
2023-06-10T20:46:16.093Z,17.55
2023-06-10T20:51:17.912Z,17.45
2023-06-10T20:56:19.695Z,17.38
2023-06-10T21:01:21.490Z,17.30
2023-06-10T21:06:23.860Z,17.21
2023-06-10T21:11:26.876Z,17.15
2023-06-10T21:16:32.176Z,17.07
2023-06-10T21:21:34.111Z,16.99
2023-06-10T21:26:36.149Z,16.89
2023-06-10T21:31:38.534Z,16.83
2023-06-10T21:36:40.896Z,16.75
2023-06-10T21:41:42.568Z,16.65
2023-06-10T21:46:44.145Z,16.55
2023-06-10T21:51:46.570Z,16.47
2023-06-10T21:56:49.944Z,16.38
2023-06-10T22:01:51.734Z,16.29
2023-06-10T22:06:53.971Z,16.21
2023-06-10T22:11:56.045Z,16.15
2023-06-10T22:16:57.765Z,16.03
2023-06-10T22:21:59.839Z,15.87
2023-06-10T22:27:02.141Z,15.74
2023-06-10T22:32:04.363Z,15.64
2023-06-10T22:37:06.490Z,15.58
2023-06-10T22:42:10.315Z,15.53
2023-06-10T22:47:12.095Z,15.53
2023-06-10T22:52:14.200Z,15.48
2023-06-10T22:57:15.982Z,15.42
2023-06-10T23:02:17.839Z,15.36
2023-06-10T23:07:21.535Z,15.30
2023-06-10T23:12:23.216Z,15.23
2023-06-10T23:17:29.740Z,15.19
2023-06-10T23:22:32.919Z,15.15
2023-06-10T23:27:34.665Z,15.13
2023-06-10T23:32:36.467Z,15.12
2023-06-10T23:37:39.425Z,15.10
2023-06-10T23:42:41.270Z,15.06
2023-06-10T23:47:43.627Z,15.04
2023-06-10T23:52:47.380Z,15.03
2023-06-10T23:57:50.253Z,15.02
